createdAt,value
2017-05-10T00:00:24.725Z,72.95
2017-05-10T00:01:24.727Z,73.04
2017-05-10T00:02:24.685Z,73.52
2017-05-10T00:03:24.666Z,73.61
2017-05-10T00:04:24.631Z,73.04
2017-05-10T00:05:24.615Z,72.85
2017-05-10T00:06:24.576Z,73.04
2017-05-10T00:07:24.555Z,73.8
2017-05-10T00:08:24.531Z,73.61
2017-05-10T00:09:24.564Z,73.61
2017-05-10T00:10:24.480Z,73.61
2017-05-10T00:11:24.168Z,73.61
2017-05-10T00:12:24.442Z,73.71
2017-05-10T00:13:24.423Z,73.14
2017-05-10T00:14:24.386Z,73.8
2017-05-10T00:15:24.367Z,73.61
2017-05-10T00:16:24.346Z,73.42
2017-05-10T00:17:24.314Z,73.33
2017-05-10T00:18:23.989Z,73.61
2017-05-10T00:19:24.266Z,74.08
2017-05-10T00:20:24.239Z,73.8
2017-05-10T00:21:24.214Z,73.8
2017-05-10T00:22:24.190Z,74.37
2017-05-10T00:23:24.165Z,74.08
2017-05-10T00:24:24.143Z,74.47
2017-05-10T00:25:24.124Z,74.47
2017-05-10T00:26:24.093Z,74.66
2017-05-10T00:27:24.072Z,74.37
2017-05-10T00:28:24.056Z,74.08
2017-05-10T00:29:24.023Z,73.99
2017-05-10T00:30:23.998Z,73.8
2017-05-10T00:31:23.975Z,73.8
2017-05-10T00:32:23.946Z,74.47
2017-05-10T00:33:23.925Z,73.99
2017-05-10T00:34:23.901Z,74.18
2017-05-10T00:35:23.929Z,74.37
2017-05-10T00:36:23.849Z,74.94
2017-05-10T00:37:23.837Z,74.75
2017-05-10T00:38:23.807Z,74.47
2017-05-10T00:39:23.498Z,74.47
2017-05-10T00:40:23.754Z,74.85
2017-05-10T00:41:23.734Z,74.66
2017-05-10T00:42:23.706Z,74.66
2017-05-10T00:43:23.682Z,74.94
2017-05-10T00:44:23.655Z,74.94
2017-05-10T00:45:23.634Z,74.66
2017-05-10T00:46:23.313Z,74.75
2017-05-10T00:47:23.588Z,75.23
2017-05-10T00:48:23.564Z,75.13
2017-05-10T00:49:23.545Z,74.66
2017-05-10T00:50:23.518Z,74.85
2017-05-10T00:51:23.487Z,74.94
2017-05-10T00:52:23.468Z,75.13
2017-05-10T00:53:23.443Z,75.04
2017-05-10T00:54:23.414Z,74.85
2017-05-10T00:55:23.395Z,75.28
2017-05-10T00:56:23.367Z,75.47
2017-05-10T00:57:23.045Z,75.51
2017-05-10T00:58:23.325Z,75.09
2017-05-10T00:59:23.295Z,75.28
2017-05-10T01:00:23.268Z,75.57
2017-05-10T01:01:23.247Z,75.85
2017-05-10T01:02:23.224Z,75.95
2017-05-10T01:03:23.197Z,75.85
2017-05-10T01:04:23.166Z,75.85
2017-05-10T01:05:23.150Z,75.85
2017-05-10T01:06:23.126Z,76.04
2017-05-10T01:07:23.096Z,75.95
2017-05-10T01:08:23.074Z,75.95
2017-05-10T01:09:23.053Z,75.95
2017-05-10T01:10:23.037Z,75.85
2017-05-10T01:11:23.001Z,75.76
2017-05-10T01:12:22.977Z,75.67
2017-05-10T01:13:23.208Z,75.95
2017-05-10T01:14:22.930Z,75.76
2017-05-10T01:15:22.909Z,75.76
2017-05-10T01:16:22.875Z,76.71
2017-05-10T01:17:22.855Z,76.42
2017-05-10T01:18:22.836Z,76.42
2017-05-10T01:19:22.807Z,76.32
2017-05-10T01:20:22.485Z,76.71
2017-05-10T01:21:22.758Z,76.71
2017-05-10T01:22:22.737Z,76.71
2017-05-10T01:23:22.710Z,76.71
2017-05-10T01:24:22.683Z,76.71
2017-05-10T01:25:22.692Z,76.71
2017-05-10T01:26:22.632Z,76.8
2017-05-10T01:27:22.616Z,76.71
2017-05-10T01:28:22.588Z,76.9
2017-05-10T01:29:22.558Z,76.61
2017-05-10T01:30:22.533Z,77.09
2017-05-10T01:31:22.508Z,76.9
2017-05-10T01:32:22.483Z,77.37
2017-05-10T01:33:22.460Z,76.9
2017-05-10T01:34:22.491Z,77.09
2017-05-10T01:35:22.416Z,76.71
2017-05-10T01:36:22.390Z,77.47
2017-05-10T01:37:22.361Z,77.28
2017-05-10T01:38:22.340Z,77.28
2017-05-10T01:39:22.323Z,77.09
2017-05-10T01:40:22.289Z,77.37
2017-05-10T01:41:22.312Z,77.18
2017-05-10T01:42:22.238Z,77.18
2017-05-10T01:43:22.216Z,77.18
2017-05-10T01:44:21.901Z,77.37
2017-05-10T01:45:21.867Z,77.18
2017-05-10T01:46:21.856Z,77.47
2017-05-10T01:47:22.121Z,77.28
2017-05-10T01:48:22.099Z,77.75
2017-05-10T01:49:22.069Z,77.37
2017-05-10T01:50:22.038Z,77.28
2017-05-10T01:51:22.022Z,77.09
2017-05-10T01:52:22.018Z,77.28
2017-05-10T01:53:21.972Z,77.66
2017-05-10T01:54:21.947Z,77.75
2017-05-10T01:55:21.919Z,78.03
2017-05-10T01:56:21.899Z,77.66
2017-05-10T01:57:21.877Z,77.75
2017-05-10T01:58:21.851Z,77.66
2017-05-10T01:59:21.871Z,77.66
2017-05-10T02:00:21.795Z,77.28
2017-05-10T02:01:21.771Z,77.56
2017-05-10T02:02:21.452Z,77.37
2017-05-10T02:03:21.723Z,77.18
2017-05-10T02:04:21.702Z,77.28
2017-05-10T02:05:21.723Z,77.56
2017-05-10T02:06:21.657Z,77.75
2017-05-10T02:07:21.622Z,77.84
2017-05-10T02:08:21.602Z,77.09
2017-05-10T02:09:21.584Z,77.18
2017-05-10T02:10:21.550Z,77.09
2017-05-10T02:11:21.531Z,76.99
2017-05-10T02:12:21.506Z,77.28
2017-05-10T02:13:21.488Z,77.09
2017-05-10T02:14:21.456Z,77.18
2017-05-10T02:15:21.433Z,76.9
2017-05-10T02:16:21.407Z,77.28
2017-05-10T02:17:21.077Z,77.37
2017-05-10T02:18:21.360Z,77.28
2017-05-10T02:19:21.332Z,77.18
2017-05-10T02:20:21.308Z,77.09
2017-05-10T02:21:20.984Z,77.37
2017-05-10T02:22:21.258Z,77.56
2017-05-10T02:23:21.231Z,77.37
2017-05-10T02:24:21.208Z,77.09
2017-05-10T02:25:21.189Z,77.47
2017-05-10T02:26:21.163Z,77.56
2017-05-10T02:27:21.142Z,77.52
2017-05-10T02:28:21.109Z,77.56
2017-05-10T02:29:21.087Z,78.32
2017-05-10T02:30:21.057Z,78
2017-05-10T02:31:21.033Z,78.28
2017-05-10T02:32:21.012Z,78.28
2017-05-10T02:33:20.686Z,78.38
2017-05-10T02:34:20.965Z,78.09
2017-05-10T02:35:20.936Z,77.9
2017-05-10T02:36:20.917Z,78.66
2017-05-10T02:37:20.890Z,78.47
2017-05-10T02:38:20.860Z,78.56
2017-05-10T02:39:20.842Z,78.85
2017-05-10T02:40:20.815Z,78.75
2017-05-10T02:41:20.845Z,78.85
2017-05-10T02:42:20.834Z,78.66
2017-05-10T02:43:20.743Z,78.56
2017-05-10T02:44:20.716Z,78.56
2017-05-10T02:45:20.692Z,78.95
2017-05-10T02:46:20.673Z,78.95
2017-05-10T02:47:20.645Z,78.85
2017-05-10T02:48:20.623Z,79.33
2017-05-10T02:49:20.591Z,79.8
2017-05-10T02:50:20.563Z,79.8
2017-05-10T02:51:20.542Z,79.33
2017-05-10T02:52:20.521Z,79.42
2017-05-10T02:53:20.494Z,79.61
2017-05-10T02:54:20.475Z,79.8
2017-05-10T02:55:20.441Z,79.52
2017-05-10T02:56:20.421Z,79.42
2017-05-10T02:57:20.396Z,79.8
2017-05-10T02:58:20.376Z,79.52
2017-05-10T02:59:20.343Z,79.8
2017-05-10T03:00:20.321Z,79.61
2017-05-10T03:01:20.290Z,79.61
2017-05-10T03:02:20.271Z,79.8
2017-05-10T03:03:20.246Z,80.27
2017-05-10T03:04:20.223Z,80.08
2017-05-10T03:05:20.197Z,80.08
2017-05-10T03:06:20.171Z,79.99
2017-05-10T03:07:20.141Z,79.9
2017-05-10T03:08:20.119Z,79.99
2017-05-10T03:09:20.093Z,79.99
2017-05-10T03:10:20.074Z,80.46
2017-05-10T03:11:20.044Z,80.65
2017-05-10T03:12:20.017Z,80.37
2017-05-10T03:13:19.992Z,80.37
2017-05-10T03:14:19.970Z,80.27
2017-05-10T03:15:19.947Z,80.56
2017-05-10T03:16:19.922Z,80.56
2017-05-10T03:17:19.891Z,80.37
2017-05-10T03:18:19.873Z,80.18
2017-05-10T03:19:19.850Z,80.84
2017-05-10T03:20:19.820Z,80.84
2017-05-10T03:21:19.792Z,80.84
2017-05-10T03:22:19.769Z,80.94
2017-05-10T03:23:19.442Z,80.84
2017-05-10T03:24:19.720Z,80.84
2017-05-10T03:25:19.694Z,80.75
2017-05-10T03:26:19.720Z,81.04
2017-05-10T03:27:19.645Z,81.32
2017-05-10T03:28:19.623Z,80.94
2017-05-10T03:29:19.595Z,81.04
2017-05-10T03:30:19.576Z,80.84
2017-05-10T03:31:19.549Z,80.84
2017-05-10T03:32:19.518Z,80.65
2017-05-10T03:33:19.492Z,80.75
2017-05-10T03:34:19.467Z,80.65
2017-05-10T03:35:19.441Z,80.65
2017-05-10T03:36:19.420Z,80.84
2017-05-10T03:37:19.397Z,80.84
2017-05-10T03:38:19.375Z,80.84
2017-05-10T03:39:19.345Z,80.75
2017-05-10T03:40:19.321Z,80.84
2017-05-10T03:41:19.293Z,80.84
2017-05-10T03:42:19.271Z,80.75
2017-05-10T03:43:18.947Z,81.23
2017-05-10T03:44:18.914Z,81.56
2017-05-10T03:45:19.191Z,81.18
2017-05-10T03:46:19.166Z,81.7
2017-05-10T03:47:19.146Z,81.47
2017-05-10T03:48:19.116Z,81.56
2017-05-10T03:49:19.093Z,81.66
2017-05-10T03:50:19.070Z,81.66
2017-05-10T03:51:19.043Z,81.75
2017-05-10T03:52:19.019Z,81.7
2017-05-10T03:53:18.998Z,81.85
2017-05-10T03:54:19.016Z,81.85
2017-05-10T03:55:18.944Z,81.66
2017-05-10T03:56:18.964Z,81.47
2017-05-10T03:57:18.895Z,81.66
2017-05-10T03:58:18.866Z,81.66
2017-05-10T03:59:18.848Z,81.41
2017-05-10T04:00:18.819Z,81.85
2017-05-10T04:01:18.791Z,81.75
2017-05-10T04:02:18.768Z,81.85
2017-05-10T04:03:18.794Z,82.13
2017-05-10T04:04:18.718Z,81.94
2017-05-10T04:05:18.695Z,82.13
2017-05-10T04:06:18.665Z,82.13
2017-05-10T04:07:18.336Z,82.32
2017-05-10T04:08:18.707Z,82.6
2017-05-10T04:09:18.594Z,82.79
2017-05-10T04:10:18.567Z,82.79
2017-05-10T04:11:18.547Z,82.42
2017-05-10T04:12:18.515Z,82.7
2017-05-10T04:13:18.491Z,83.46
2017-05-10T04:14:18.467Z,83.74
2017-05-10T04:15:18.439Z,83.69
2017-05-10T04:16:18.413Z,83.97
2017-05-10T04:17:18.394Z,83.03
2017-05-10T04:18:18.367Z,82.55
2017-05-10T04:19:18.341Z,82.17
2017-05-10T04:20:18.319Z,81.51
2017-05-10T04:21:18.291Z,81.7
2017-05-10T04:22:18.269Z,81.79
2017-05-10T04:23:17.947Z,81.41
2017-05-10T04:24:18.229Z,81.51
2017-05-10T04:25:18.193Z,81.32
2017-05-10T04:26:18.169Z,81.7
2017-05-10T04:27:18.148Z,81.6
2017-05-10T04:28:18.131Z,81.13
2017-05-10T04:29:18.096Z,81.51
2017-05-10T04:30:18.066Z,81.41
2017-05-10T04:31:18.041Z,81.41
2017-05-10T04:32:18.016Z,81.32
2017-05-10T04:33:17.998Z,81.41
2017-05-10T04:34:17.964Z,81.6
2017-05-10T04:35:17.956Z,81.79
2017-05-10T04:36:17.618Z,81.6
2017-05-10T04:37:17.892Z,81.41
2017-05-10T04:38:17.868Z,81.41
2017-05-10T04:39:17.843Z,81.04
2017-05-10T04:40:17.870Z,80.75
2017-05-10T04:41:17.794Z,80.65
2017-05-10T04:42:17.773Z,81.04
2017-05-10T04:43:17.758Z,80.84
2017-05-10T04:44:17.721Z,80.27
2017-05-10T04:45:17.698Z,80.56
2017-05-10T04:46:17.759Z,80.03
2017-05-10T04:47:17.650Z,80.03
2017-05-10T04:48:17.621Z,80.03
2017-05-10T04:49:17.599Z,80.03
2017-05-10T04:50:17.575Z,79.55
2017-05-10T04:51:17.247Z,79.65
2017-05-10T04:52:17.533Z,79.27
2017-05-10T04:53:17.502Z,79.17
2017-05-10T04:54:17.176Z,78.99
2017-05-10T04:55:17.456Z,78.61
2017-05-10T04:56:17.428Z,78.7
2017-05-10T04:57:17.409Z,78.08
2017-05-10T04:58:17.384Z,78.45
2017-05-10T04:59:17.354Z,77.79
2017-05-10T05:00:17.331Z,77.79
2017-05-10T05:01:17.315Z,77.03
2017-05-10T05:02:17.285Z,77.12
2017-05-10T05:03:17.260Z,76.65
2017-05-10T05:04:17.246Z,76.5
2017-05-10T05:05:17.209Z,75.74
2017-05-10T05:06:17.201Z,76.12
2017-05-10T05:07:17.170Z,75.55
2017-05-10T05:08:16.848Z,74.98
2017-05-10T05:09:17.122Z,74.69
2017-05-10T05:10:17.110Z,75.07
2017-05-10T05:11:17.078Z,74.54
2017-05-10T05:12:17.053Z,74.26
2017-05-10T05:13:17.036Z,73.78
2017-05-10T05:14:16.748Z,73.59
2017-05-10T05:15:16.986Z,73.02
2017-05-10T05:16:16.962Z,73.11
2017-05-10T05:17:16.937Z,73.11
2017-05-10T05:18:16.924Z,72.45
2017-05-10T05:19:16.591Z,72.3
2017-05-10T05:20:16.875Z,72.39
2017-05-10T05:21:16.852Z,72.39
2017-05-10T05:22:16.829Z,71.91
2017-05-10T05:23:16.808Z,71.15
2017-05-10T05:24:16.783Z,70.58
2017-05-10T05:25:16.763Z,70.33
2017-05-10T05:26:16.739Z,70.24
2017-05-10T05:27:16.717Z,69.85
2017-05-10T05:28:16.704Z,69.85
2017-05-10T05:29:16.724Z,68.9
2017-05-10T05:30:16.647Z,68.43
2017-05-10T05:31:16.326Z,68.15
2017-05-10T05:32:16.609Z,68.24
2017-05-10T05:33:16.587Z,67.89
2017-05-10T05:34:16.566Z,67.61
2017-05-10T05:35:16.541Z,67.03
2017-05-10T05:36:16.516Z,66.75
2017-05-10T05:37:16.503Z,66.94
2017-05-10T05:38:16.481Z,67.22
2017-05-10T05:39:16.454Z,67.03
2017-05-10T05:40:16.437Z,66.75
2017-05-10T05:41:16.416Z,66.94
2017-05-10T05:42:16.390Z,66.46
2017-05-10T05:43:16.369Z,65.99
2017-05-10T05:44:16.349Z,65.73
2017-05-10T05:45:16.323Z,65.45
2017-05-10T05:46:16.000Z,64.24
2017-05-10T05:47:16.285Z,64.43
2017-05-10T05:48:16.268Z,64.12
2017-05-10T05:49:16.242Z,64.12
2017-05-10T05:50:16.220Z,64.21
2017-05-10T05:51:16.237Z,64.43
2017-05-10T05:52:16.184Z,64.53
2017-05-10T05:53:16.159Z,64.24
2017-05-10T05:54:16.136Z,63.96
2017-05-10T05:55:16.121Z,63.48
2017-05-10T05:56:16.095Z,62.91
2017-05-10T05:57:16.077Z,62.37
2017-05-10T05:58:16.057Z,62.18
2017-05-10T05:59:16.038Z,62.08
2017-05-10T06:00:16.016Z,62.08
2017-05-10T06:01:15.993Z,61.32
2017-05-10T06:02:15.673Z,61.13
2017-05-10T06:03:16.004Z,61.99
2017-05-10T06:04:15.935Z,60.84
2017-05-10T06:05:15.912Z,61.32
2017-05-10T06:06:15.903Z,61.73
2017-05-10T06:07:15.885Z,60.78
2017-05-10T06:08:15.858Z,60.3
2017-05-10T06:09:15.831Z,59.95
2017-05-10T06:10:15.863Z,59.47
2017-05-10T06:11:15.799Z,58.73
2017-05-10T06:12:15.774Z,58.33
2017-05-10T06:13:15.757Z,58.16
2017-05-10T06:14:15.738Z,58.16
2017-05-10T06:15:15.716Z,57.02
2017-05-10T06:16:15.699Z,55.99
2017-05-10T06:17:15.678Z,55.9
2017-05-10T06:18:15.654Z,55.42
2017-05-10T06:19:15.652Z,55.52
2017-05-10T06:20:15.624Z,54.56
2017-05-10T06:21:15.601Z,54.47
2017-05-10T06:22:15.286Z,54.18
2017-05-10T06:23:15.563Z,53.99
2017-05-10T06:24:15.767Z,54.18
2017-05-10T06:25:15.527Z,54.53
2017-05-10T06:26:15.507Z,54.34
2017-05-10T06:27:15.484Z,54.63
2017-05-10T06:28:15.472Z,54.25
2017-05-10T06:29:15.509Z,54.25
2017-05-10T06:30:15.434Z,54.18
2017-05-10T06:31:15.416Z,54.27
2017-05-10T06:32:15.396Z,54.08
2017-05-10T06:33:15.377Z,53.89
2017-05-10T06:34:15.364Z,52.08
2017-05-10T06:35:15.342Z,51.79
2017-05-10T06:36:15.323Z,50.93
2017-05-10T06:37:15.354Z,50.48
2017-05-10T06:38:15.285Z,50.29
2017-05-10T06:39:15.270Z,50
2017-05-10T06:40:15.252Z,50.19
2017-05-10T06:41:15.230Z,50
2017-05-10T06:42:15.215Z,49.14
2017-05-10T06:43:15.200Z,48.21
2017-05-10T06:44:15.183Z,46.96
2017-05-10T06:45:15.156Z,46.12
2017-05-10T06:46:15.142Z,45.94
2017-05-10T06:47:15.124Z,45.65
2017-05-10T06:48:15.112Z,45.45
2017-05-10T06:49:15.087Z,45.34
2017-05-10T06:50:15.074Z,45.07
2017-05-10T06:51:15.058Z,45.07
2017-05-10T06:52:15.036Z,44.59
2017-05-10T06:53:15.024Z,44.4
2017-05-10T06:54:15.005Z,43.95
2017-05-10T06:55:14.990Z,42.99
2017-05-10T06:56:14.967Z,42.8
2017-05-10T06:57:14.953Z,42.97
2017-05-10T06:58:14.936Z,43.16
2017-05-10T06:59:14.973Z,43.16
2017-05-10T07:00:14.899Z,43.83
2017-05-10T07:01:14.882Z,43.63
2017-05-10T07:02:14.869Z,43.85
2017-05-10T07:03:14.849Z,43.37
2017-05-10T07:04:14.587Z,43.1
2017-05-10T07:05:14.813Z,43.01
2017-05-10T07:06:14.817Z,41.6
2017-05-10T07:07:14.788Z,41.4
2017-05-10T07:08:14.766Z,41.28
2017-05-10T07:09:14.750Z,41.67
2017-05-10T07:10:14.737Z,41.57
2017-05-10T07:11:14.725Z,41.4
2017-05-10T07:12:14.702Z,41.57
2017-05-10T07:13:14.689Z,41.48
2017-05-10T07:14:14.675Z,41.28
2017-05-10T07:15:14.656Z,40.92
2017-05-10T07:16:14.636Z,40.44
2017-05-10T07:17:14.629Z,40.83
2017-05-10T07:18:14.607Z,40.73
2017-05-10T07:19:14.596Z,39.87
2017-05-10T07:20:14.630Z,39.77
2017-05-10T07:21:14.566Z,39.7
2017-05-10T07:22:14.545Z,39.98
2017-05-10T07:23:14.529Z,39.12
2017-05-10T07:24:14.512Z,38.93
2017-05-10T07:25:14.499Z,38.37
2017-05-10T07:26:14.480Z,37.89
2017-05-10T07:27:14.505Z,37.8
2017-05-10T07:28:14.451Z,38.09
2017-05-10T07:29:14.442Z,37.89
2017-05-10T07:30:14.419Z,37.13
2017-05-10T07:31:14.408Z,37.03
2017-05-10T07:32:14.391Z,37.8
2017-05-10T07:33:14.382Z,38.64
2017-05-10T07:34:14.360Z,39.03
2017-05-10T07:35:14.345Z,38.74
2017-05-10T07:36:14.334Z,37.99
2017-05-10T07:37:14.325Z,37.7
2017-05-10T07:38:14.305Z,37.13
2017-05-10T07:39:14.289Z,36.93
2017-05-10T07:40:14.329Z,37.22
2017-05-10T07:41:14.258Z,37.13
2017-05-10T07:42:14.245Z,37.05
2017-05-10T07:43:14.287Z,37.24
2017-05-10T07:44:14.282Z,36.86
2017-05-10T07:45:14.204Z,36.76
2017-05-10T07:46:14.186Z,36.66
2017-05-10T07:47:14.173Z,35.89
2017-05-10T07:48:14.160Z,36.18
2017-05-10T07:49:14.141Z,36.66
2017-05-10T07:50:14.137Z,37.13
2017-05-10T07:51:14.114Z,37.4
2017-05-10T07:52:14.105Z,37.78
2017-05-10T07:53:14.087Z,37.89
2017-05-10T07:54:14.071Z,37.78
2017-05-10T07:55:14.117Z,38.35
2017-05-10T07:56:14.052Z,38.26
2017-05-10T07:57:14.029Z,37.99
2017-05-10T07:58:14.271Z,37.8
2017-05-10T07:59:14.012Z,37.32
2017-05-10T08:00:13.989Z,36.66
2017-05-10T08:01:13.974Z,36.86
2017-05-10T08:02:14.108Z,36.09
2017-05-10T08:03:13.945Z,35.91
2017-05-10T08:04:13.928Z,35.63
2017-05-10T08:05:13.921Z,34.88
2017-05-10T08:06:13.909Z,34.41
2017-05-10T08:07:13.890Z,33.26
2017-05-10T08:08:13.879Z,33.64
2017-05-10T08:09:13.866Z,33.36
2017-05-10T08:10:13.852Z,32.68
2017-05-10T08:11:13.840Z,33.26
2017-05-10T08:12:13.878Z,33.53
2017-05-10T08:13:13.824Z,33.24
2017-05-10T08:14:13.799Z,33.62
2017-05-10T08:15:13.793Z,34.57
2017-05-10T08:16:13.783Z,34.57
2017-05-10T08:17:13.763Z,34.78
2017-05-10T08:18:13.455Z,34.2
2017-05-10T08:19:13.789Z,33.54
2017-05-10T08:20:13.766Z,33.18
2017-05-10T08:21:13.714Z,32.33
2017-05-10T08:22:13.711Z,32.23
2017-05-10T08:23:13.748Z,32.14
2017-05-10T08:24:13.683Z,31.65
2017-05-10T08:25:13.679Z,31
2017-05-10T08:26:13.660Z,31.57
2017-05-10T08:27:13.651Z,31.56
2017-05-10T08:28:13.635Z,31.57
2017-05-10T08:29:13.620Z,32.23
2017-05-10T08:30:13.611Z,32.14
2017-05-10T08:31:13.599Z,32.6
2017-05-10T08:32:13.587Z,33.54
2017-05-10T08:33:13.575Z,33.45
2017-05-10T08:34:13.565Z,33.36
2017-05-10T08:35:13.545Z,33.44
2017-05-10T08:36:13.539Z,34.49
2017-05-10T08:37:13.524Z,34.49
2017-05-10T08:38:13.514Z,34.76
2017-05-10T08:39:13.504Z,35.24
2017-05-10T08:40:13.535Z,35.61
2017-05-10T08:41:13.475Z,35.99
2017-05-10T08:42:13.456Z,36.47
2017-05-10T08:43:13.444Z,36.47
2017-05-10T08:44:13.470Z,35.53
2017-05-10T08:45:13.371Z,34.67
2017-05-10T08:46:13.406Z,34.49
2017-05-10T08:47:13.392Z,33.72
2017-05-10T08:48:13.380Z,34.38
2017-05-10T08:49:13.386Z,33.44
2017-05-10T08:50:13.356Z,34.2
2017-05-10T08:51:13.394Z,34.3
2017-05-10T08:52:13.333Z,33.72
2017-05-10T08:53:13.326Z,34.28
2017-05-10T08:54:13.307Z,35.89
2017-05-10T08:55:13.291Z,35.89
2017-05-10T08:56:13.275Z,35.71
2017-05-10T08:57:13.258Z,36.46
2017-05-10T08:58:13.499Z,36.65
2017-05-10T08:59:13.232Z,36.93
2017-05-10T09:00:13.217Z,38.05
2017-05-10T09:01:13.211Z,38.98
2017-05-10T09:02:13.189Z,39.75
2017-05-10T09:03:13.174Z,39.85
2017-05-10T09:04:13.154Z,39.87
2017-05-10T09:05:13.145Z,39.2
2017-05-10T09:06:13.128Z,38.64
2017-05-10T09:07:13.111Z,38.54
2017-05-10T09:08:12.794Z,38.18
2017-05-10T09:09:13.085Z,37.8
2017-05-10T09:10:13.071Z,37.8
2017-05-10T09:11:13.051Z,37.99
2017-05-10T09:12:13.037Z,38.26
2017-05-10T09:13:13.018Z,38.45
2017-05-10T09:14:13.003Z,38.56
2017-05-10T09:15:12.986Z,37.41
2017-05-10T09:16:12.970Z,36.11
2017-05-10T09:17:12.967Z,34.76
2017-05-10T09:18:12.943Z,35.05
2017-05-10T09:19:12.929Z,34.86
2017-05-10T09:20:12.911Z,35.24
2017-05-10T09:21:12.906Z,35.43
2017-05-10T09:22:12.880Z,35.91
2017-05-10T09:23:12.867Z,36.11
2017-05-10T09:24:12.853Z,36.2
2017-05-10T09:25:12.540Z,35.36
2017-05-10T09:26:12.826Z,34.51
2017-05-10T09:27:12.812Z,34.03
2017-05-10T09:28:12.798Z,34.49
2017-05-10T09:29:12.785Z,35.14
2017-05-10T09:30:12.766Z,35.8
2017-05-10T09:31:12.751Z,36.74
2017-05-10T09:32:12.795Z,37.68
2017-05-10T09:33:12.724Z,38.43
2017-05-10T09:34:12.708Z,38.26
2017-05-10T09:35:12.691Z,38.54
2017-05-10T09:36:12.674Z,38.35
2017-05-10T09:37:12.659Z,38.72
2017-05-10T09:38:12.648Z,39.29
2017-05-10T09:39:12.629Z,39.01
2017-05-10T09:40:12.612Z,39.1
2017-05-10T09:41:12.596Z,39.87
2017-05-10T09:42:12.583Z,38.81
2017-05-10T09:43:12.559Z,38.45
2017-05-10T09:44:12.597Z,38.54
2017-05-10T09:45:12.225Z,38.54
2017-05-10T09:46:12.215Z,38.62
2017-05-10T09:47:12.499Z,39.39
2017-05-10T09:48:12.493Z,39.75
2017-05-10T09:49:12.165Z,39.48
2017-05-10T09:50:12.450Z,38.93
2017-05-10T09:51:12.437Z,38.37
2017-05-10T09:52:12.416Z,37.82
2017-05-10T09:53:12.403Z,36.22
2017-05-10T09:54:12.384Z,35.38
2017-05-10T09:55:12.371Z,34.12
2017-05-10T09:56:12.355Z,33.66
2017-05-10T09:57:12.344Z,33.18
2017-05-10T09:58:12.330Z,32.41
2017-05-10T09:59:12.313Z,33.45
2017-05-10T10:00:12.296Z,34.59
2017-05-10T10:01:12.280Z,35.43
2017-05-10T10:02:12.269Z,36.74
2017-05-10T10:03:12.302Z,38.07
2017-05-10T10:04:11.936Z,38.81
2017-05-10T10:05:12.224Z,39.56
2017-05-10T10:06:12.206Z,40.31
2017-05-10T10:07:12.188Z,40.59
2017-05-10T10:08:12.177Z,40.98
2017-05-10T10:09:12.209Z,42.01
2017-05-10T10:10:12.187Z,41.55
2017-05-10T10:11:12.118Z,41.19
2017-05-10T10:12:12.107Z,39.65
2017-05-10T10:13:12.090Z,39.58
2017-05-10T10:14:12.072Z,39.68
2017-05-10T10:15:12.054Z,39.1
2017-05-10T10:16:12.033Z,39.22
2017-05-10T10:17:12.076Z,39.01
2017-05-10T10:26:07.824Z,41.17
2017-05-10T10:27:07.700Z,41
2017-05-10T10:28:07.680Z,41.48
2017-05-10T10:29:07.664Z,41.09
2017-05-10T10:30:07.642Z,39.87
2017-05-10T10:31:07.626Z,39.41
2017-05-10T10:32:07.660Z,38.47
2017-05-10T10:33:07.599Z,38.18
2017-05-10T10:34:07.577Z,37.89
2017-05-10T10:35:07.560Z,37.53
2017-05-10T10:36:07.541Z,36.95
2017-05-10T10:37:07.530Z,36.01
2017-05-10T10:38:22.118Z,35.64
2017-05-10T10:39:07.201Z,35.16
2017-05-10T10:40:07.176Z,34.51
2017-05-10T10:41:07.465Z,34.14
2017-05-10T10:42:07.447Z,32.98
2017-05-10T10:43:07.433Z,32.43
2017-05-10T10:44:07.428Z,32.62
2017-05-10T10:45:07.408Z,33.37
2017-05-10T10:46:07.397Z,33.66
2017-05-10T10:47:07.389Z,33.75
2017-05-10T10:48:07.380Z,33.74
2017-05-10T10:49:07.360Z,34.12
2017-05-10T10:50:07.398Z,34.49
2017-05-10T10:51:07.333Z,34.95
2017-05-10T10:52:07.327Z,35.63
2017-05-10T10:53:07.308Z,35.45
2017-05-10T10:54:07.295Z,34.68
2017-05-10T10:55:07.282Z,34.8
2017-05-10T10:56:07.274Z,34.88
2017-05-10T10:57:07.257Z,35.53
2017-05-10T10:58:07.241Z,35.91
2017-05-10T10:59:07.230Z,36.86
2017-05-10T11:00:07.218Z,37.51
2017-05-10T11:01:07.205Z,38.26
2017-05-10T11:02:07.187Z,39.48
2017-05-10T11:03:07.172Z,40.14
2017-05-10T11:04:07.157Z,40.69
2017-05-10T11:05:07.142Z,41.55
2017-05-10T11:06:07.130Z,42.32
2017-05-10T11:07:07.123Z,42.6
2017-05-10T11:08:07.092Z,43.35
2017-05-10T11:09:07.103Z,43.35
2017-05-10T11:10:07.058Z,43.44
2017-05-10T11:11:07.041Z,43.54
2017-05-10T11:12:07.027Z,42.9
2017-05-10T11:13:07.013Z,42.97
2017-05-10T11:14:06.985Z,42.77
2017-05-10T11:15:06.968Z,43.54
2017-05-10T11:16:06.958Z,43.26
2017-05-10T11:17:06.929Z,43.54
2017-05-10T11:18:06.916Z,43.54
2017-05-10T11:19:06.903Z,43.73
2017-05-10T11:20:06.933Z,43.44
2017-05-10T11:21:06.858Z,43.92
2017-05-10T11:22:06.840Z,43.73
2017-05-10T11:23:06.826Z,43.44
2017-05-10T11:24:06.802Z,43.35
2017-05-10T11:25:06.787Z,43.54
2017-05-10T11:26:06.767Z,43.92
2017-05-10T11:27:06.799Z,43.73
2017-05-10T11:28:06.781Z,43.83
2017-05-10T11:29:06.709Z,43.73
2017-05-10T11:30:06.691Z,43.92
2017-05-10T11:31:06.672Z,43.92
2017-05-10T11:32:06.651Z,43.37
2017-05-10T11:33:06.637Z,43.37
2017-05-10T11:34:06.618Z,43.37
2017-05-10T11:35:06.594Z,43.18
2017-05-10T11:36:06.578Z,42.51
2017-05-10T11:37:06.565Z,42.7
2017-05-10T11:38:06.538Z,42.6
2017-05-10T11:39:06.515Z,43.18
2017-05-10T11:40:06.498Z,43.08
2017-05-10T11:41:06.477Z,43.37
2017-05-10T11:42:06.460Z,43.18
2017-05-10T11:43:06.443Z,42.99
2017-05-10T11:44:06.420Z,42.7
2017-05-10T11:45:06.401Z,42.22
2017-05-10T11:46:06.399Z,42.8
2017-05-10T11:47:06.366Z,43.56
2017-05-10T11:48:06.393Z,44.23
2017-05-10T11:49:06.338Z,44.59
2017-05-10T11:50:06.307Z,44.5
2017-05-10T11:51:06.285Z,44.79
2017-05-10T11:52:06.267Z,44.5
2017-05-10T11:53:06.249Z,44.02
2017-05-10T11:54:06.232Z,43.92
2017-05-10T11:55:06.219Z,43.63
2017-05-10T11:56:06.192Z,43.8
2017-05-10T11:57:06.167Z,44
2017-05-10T11:58:06.154Z,44.48
2017-05-10T11:59:06.138Z,45.03
2017-05-10T12:00:06.111Z,45.12
2017-05-10T12:01:06.092Z,45.79
2017-05-10T12:02:06.076Z,45.41
2017-05-10T12:03:06.047Z,45.31
2017-05-10T12:04:06.034Z,45.72
2017-05-10T12:05:06.012Z,45.03
2017-05-10T12:06:05.991Z,45.24
2017-05-10T12:07:05.966Z,45.24
2017-05-10T12:08:05.983Z,45.22
2017-05-10T12:09:05.934Z,45.03
2017-05-10T12:10:05.901Z,45.62
2017-05-10T12:11:05.894Z,45.53
2017-05-10T12:12:05.866Z,45.43
2017-05-10T12:13:05.851Z,45.34
2017-05-10T12:14:05.881Z,45.43
2017-05-10T12:15:05.812Z,45.05
2017-05-10T12:16:05.786Z,45.53
2017-05-10T12:17:05.765Z,44.95
2017-05-10T12:18:05.745Z,44.76
2017-05-10T12:19:05.734Z,44.5
2017-05-10T12:20:05.706Z,44.76
2017-05-10T12:21:05.685Z,44.95
2017-05-10T12:22:05.662Z,45.05
2017-05-10T12:23:05.642Z,45.05
2017-05-10T12:24:05.626Z,44.67
2017-05-10T12:25:05.301Z,44.76
2017-05-10T12:26:05.580Z,45.15
2017-05-10T12:27:05.572Z,44.88
2017-05-10T12:28:05.545Z,44.79
2017-05-10T12:29:05.522Z,44.59
2017-05-10T12:30:05.712Z,43.73
2017-05-10T12:31:05.493Z,43.44
2017-05-10T12:32:05.460Z,43.16
2017-05-10T12:33:05.437Z,43.54
2017-05-10T12:34:05.422Z,43.92
2017-05-10T12:35:05.106Z,43.83
2017-05-10T12:36:05.383Z,43.44
2017-05-10T12:37:05.059Z,43.44
2017-05-10T12:38:05.348Z,43.26
2017-05-10T12:39:05.017Z,42.9
2017-05-10T12:40:05.046Z,42.7
2017-05-10T12:41:05.287Z,42.8
2017-05-10T12:42:05.257Z,42.6
2017-05-10T12:43:05.249Z,42.97
2017-05-10T12:44:05.219Z,43.35
2017-05-10T12:45:05.220Z,43.35
2017-05-10T12:46:05.174Z,43.47
2017-05-10T12:47:05.212Z,43.37
2017-05-10T12:48:05.134Z,43.47
2017-05-10T12:49:05.116Z,43.47
2017-05-10T12:50:05.092Z,43.95
2017-05-10T12:51:05.090Z,44.02
2017-05-10T12:52:05.058Z,44.12
2017-05-10T12:53:05.033Z,44.4
2017-05-10T12:54:05.023Z,44.69
2017-05-10T12:55:04.997Z,44.98
2017-05-10T12:56:04.977Z,44.59
2017-05-10T12:57:04.958Z,44.21
2017-05-10T12:58:04.930Z,44.21
2017-05-10T12:59:04.915Z,44.12
2017-05-10T13:00:04.902Z,44.21
2017-05-10T13:01:04.876Z,44.02
2017-05-10T13:02:04.847Z,43.44
2017-05-10T13:03:04.838Z,43.47